createdAt,value
2019-03-29T00:01:42.447Z,65.21
2019-03-29T00:04:10.961Z,65.74
2019-03-29T00:06:39.479Z,65.44
2019-03-29T00:09:08.516Z,65.49
2019-03-29T00:11:37.107Z,65.55
2019-03-29T00:14:05.670Z,65.37
2019-03-29T00:16:34.189Z,65.66
2019-03-29T00:19:03.052Z,65.45
2019-03-29T00:21:31.710Z,65.69
2019-03-29T00:24:06.742Z,67.65
2019-03-29T00:26:30.464Z,68.70
2019-03-29T00:28:58.958Z,67.66
2019-03-29T00:31:27.499Z,67.03
2019-03-29T00:33:56.323Z,66.46
2019-03-29T00:36:25.874Z,66.28
2019-03-29T00:38:54.425Z,66.41
2019-03-29T00:41:22.963Z,66.02
2019-03-29T00:43:51.452Z,65.88
2019-03-29T00:46:19.944Z,66.03
2019-03-29T00:48:48.466Z,65.82
2019-03-29T00:51:16.964Z,66.23
2019-03-29T00:53:45.492Z,65.92
2019-03-29T00:56:14.284Z,65.71
2019-03-29T00:58:42.823Z,65.49
2019-03-29T01:01:11.480Z,65.75
2019-03-29T01:03:39.996Z,65.74
2019-03-29T01:06:08.614Z,67.02
2019-03-29T01:08:37.963Z,66.89
2019-03-29T01:11:06.668Z,66.45
2019-03-29T01:13:35.160Z,66.16
2019-03-29T01:16:03.757Z,65.33
2019-03-29T01:18:32.237Z,65.37
2019-03-29T01:21:00.870Z,64.75
2019-03-29T01:23:29.354Z,65.94
2019-03-29T01:25:57.852Z,65.92
2019-03-29T01:28:26.354Z,65.79
2019-03-29T01:30:54.844Z,66.06
2019-03-29T01:33:23.347Z,65.62
2019-03-29T01:35:51.843Z,65.87
2019-03-29T01:38:22.194Z,66.29
2019-03-29T01:40:50.574Z,65.79
2019-03-29T01:43:19.166Z,65.79
2019-03-29T01:45:47.660Z,65.50
2019-03-29T01:48:16.193Z,65.13
2019-03-29T01:50:44.834Z,65.25
2019-03-29T01:53:13.317Z,65.60
2019-03-29T01:55:41.837Z,65.65
2019-03-29T01:58:10.327Z,65.51
2019-03-29T02:00:38.834Z,65.58
2019-03-29T02:03:07.432Z,65.24
2019-03-29T02:05:35.984Z,65.56
2019-03-29T02:08:05.065Z,65.40
2019-03-29T02:10:34.022Z,65.55
2019-03-29T02:13:02.516Z,65.58
2019-03-29T02:15:31.083Z,65.62
2019-03-29T02:18:00.869Z,65.58
2019-03-29T02:20:29.360Z,65.28
2019-03-29T02:22:57.933Z,65.30
2019-03-29T02:25:26.452Z,67.45
2019-03-29T02:27:54.947Z,66.64
2019-03-29T02:30:23.448Z,66.21
2019-03-29T02:32:52.803Z,65.89
2019-03-29T02:35:21.700Z,65.50
2019-03-29T02:37:50.192Z,65.27
2019-03-29T02:40:18.728Z,65.26
2019-03-29T02:42:47.215Z,65.28
2019-03-29T02:45:15.777Z,65.58
2019-03-29T02:47:44.303Z,65.22
2019-03-29T02:50:13.244Z,65.16
2019-03-29T02:52:41.802Z,65.77
2019-03-29T02:55:10.763Z,65.84
2019-03-29T02:57:39.259Z,65.71
2019-03-29T03:00:09.528Z,65.67
2019-03-29T03:02:38.025Z,65.80
2019-03-29T03:05:07.455Z,65.68
2019-03-29T03:07:35.946Z,65.70
2019-03-29T03:10:07.716Z,65.58
2019-03-29T03:12:35.476Z,65.39
2019-03-29T03:15:05.175Z,65.57
2019-03-29T03:17:33.656Z,65.16
2019-03-29T03:20:02.189Z,65.39
2019-03-29T03:22:30.679Z,65.33
2019-03-29T03:24:59.218Z,65.33
2019-03-29T03:27:27.706Z,65.45
2019-03-29T03:29:56.195Z,65.42
2019-03-29T03:32:24.720Z,65.35
2019-03-29T03:34:53.212Z,65.20
2019-03-29T03:37:21.877Z,66.12
2019-03-29T03:39:50.405Z,65.85
2019-03-29T03:42:18.967Z,65.47
2019-03-29T03:44:47.496Z,65.59
2019-03-29T03:47:15.988Z,65.46
2019-03-29T03:49:44.558Z,65.53
2019-03-29T03:52:13.336Z,65.45
2019-03-29T03:54:42.352Z,65.59
2019-03-29T03:57:11.894Z,65.68
2019-03-29T03:59:41.736Z,65.63
2019-03-29T04:02:10.237Z,65.52
2019-03-29T04:04:38.725Z,65.52
2019-03-29T04:07:07.414Z,65.54
2019-03-29T04:09:49.277Z,65.59
2019-03-29T04:12:06.148Z,65.67
2019-03-29T04:14:34.641Z,65.64
2019-03-29T04:17:03.167Z,66.16
2019-03-29T04:19:31.675Z,66.47
2019-03-29T04:22:00.171Z,66.78
2019-03-29T04:24:28.694Z,66.69
2019-03-29T04:26:57.194Z,66.04
2019-03-29T04:29:25.727Z,65.81
2019-03-29T04:31:54.258Z,66.25
2019-03-29T04:34:22.746Z,66.75
2019-03-29T04:36:51.231Z,66.67
2019-03-29T04:39:19.758Z,67.09
2019-03-29T04:41:48.251Z,67.73
2019-03-29T04:44:16.785Z,67.15
2019-03-29T04:46:45.276Z,67.25
2019-03-29T04:49:13.779Z,67.50
2019-03-29T04:51:42.304Z,67.24
2019-03-29T04:54:10.830Z,67.09
2019-03-29T04:56:39.348Z,69.35
2019-03-29T04:59:07.837Z,69.51
2019-03-29T05:01:36.364Z,68.80
2019-03-29T05:04:04.932Z,68.05
2019-03-29T05:06:33.428Z,67.60
2019-03-29T05:09:01.930Z,67.38
2019-03-29T05:11:30.415Z,68.15
2019-03-29T05:13:58.926Z,69.50
2019-03-29T05:16:27.450Z,70.67
2019-03-29T05:18:55.950Z,69.91
2019-03-29T05:21:24.440Z,68.78
2019-03-29T05:23:52.972Z,67.88
2019-03-29T05:26:21.463Z,68.40
2019-03-29T05:28:49.957Z,70.26
2019-03-29T05:31:18.494Z,71.07
2019-03-29T05:33:46.985Z,70.83
2019-03-29T05:36:15.490Z,69.55
2019-03-29T05:38:43.990Z,69.10
2019-03-29T05:41:12.602Z,68.64
2019-03-29T05:43:41.111Z,68.52
2019-03-29T05:46:09.595Z,68.96
2019-03-29T05:48:38.099Z,68.51
2019-03-29T05:51:06.597Z,68.06
2019-03-29T05:53:36.674Z,67.78
2019-03-29T05:56:05.168Z,67.32
2019-03-29T05:58:33.663Z,67.13
2019-03-29T06:01:02.170Z,67.11
2019-03-29T06:03:30.672Z,66.88
2019-03-29T06:05:59.165Z,66.92
2019-03-29T06:08:27.668Z,66.79
2019-03-29T06:10:56.166Z,66.71
2019-03-29T06:13:24.689Z,66.24
2019-03-29T06:15:53.181Z,66.26
2019-03-29T06:18:21.699Z,66.36
2019-03-29T06:20:51.131Z,67.13
2019-03-29T06:23:19.657Z,67.12
2019-03-29T06:25:48.155Z,68.17
2019-03-29T06:28:16.680Z,68.85
2019-03-29T06:30:46.799Z,67.74
2019-03-29T06:33:15.321Z,67.68
2019-03-29T06:35:46.046Z,67.28
2019-03-29T06:38:15.308Z,66.86
2019-03-29T06:40:43.809Z,67.31
2019-03-29T06:43:12.300Z,66.62
2019-03-29T06:45:47.945Z,66.57
2019-03-29T06:48:11.127Z,66.56
2019-03-29T06:50:39.686Z,67.98
2019-03-29T06:53:08.199Z,68.31
2019-03-29T06:55:36.724Z,68.21
2019-03-29T06:58:05.294Z,70.12
2019-03-29T07:00:33.832Z,69.86
2019-03-29T07:03:02.666Z,68.42
2019-03-29T07:05:31.190Z,68.89
2019-03-29T07:07:59.680Z,69.58
2019-03-29T07:10:28.179Z,70.81
2019-03-29T07:12:56.868Z,69.90
2019-03-29T07:15:25.370Z,68.73
2019-03-29T07:17:53.901Z,67.31
2019-03-29T07:20:22.415Z,67.09
2019-03-29T07:22:50.936Z,66.41
2019-03-29T07:25:19.428Z,66.24
2019-03-29T07:27:52.199Z,65.85
2019-03-29T07:30:18.503Z,65.50
2019-03-29T07:32:47.029Z,64.55
2019-03-29T07:35:15.519Z,66.24
2019-03-29T07:37:44.041Z,64.88
2019-03-29T07:40:12.810Z,63.93
2019-03-29T07:42:41.378Z,64.47
2019-03-29T07:45:10.645Z,63.72
2019-03-29T07:47:39.242Z,64.10
2019-03-29T07:50:08.468Z,64.52
2019-03-29T07:52:36.992Z,64.20
2019-03-29T07:55:07.618Z,62.92
2019-03-29T07:57:36.321Z,63.06
2019-03-29T08:00:07.848Z,63.12
2019-03-29T08:02:36.343Z,68.37
2019-03-29T08:05:07.213Z,69.15
2019-03-29T08:07:35.706Z,67.70
2019-03-29T08:10:06.057Z,64.73
2019-03-29T08:12:35.568Z,62.07
2019-03-29T08:15:09.641Z,60.29
2019-03-29T08:17:38.089Z,59.87
2019-03-29T08:20:37.475Z,60.22
2019-03-29T08:22:37.242Z,58.99
2019-03-29T08:25:06.801Z,57.68
2019-03-29T08:27:35.282Z,58.15
2019-03-29T08:30:04.885Z,60.42
2019-03-29T08:32:33.368Z,60.17
2019-03-29T08:35:01.899Z,57.43
2019-03-29T08:37:30.389Z,57.45
2019-03-29T08:39:58.900Z,55.49
2019-03-29T08:42:27.393Z,54.67
2019-03-29T08:44:55.895Z,54.20
2019-03-29T08:47:24.424Z,54.04
2019-03-29T08:49:52.916Z,51.80
2019-03-29T08:52:21.435Z,51.90
2019-03-29T08:54:51.368Z,50.15
2019-03-29T08:57:20.030Z,50.70
2019-03-29T08:59:48.514Z,50.88
2019-03-29T09:02:17.088Z,50.81
2019-03-29T09:04:45.639Z,49.28
2019-03-29T09:07:14.230Z,48.25
2019-03-29T09:09:46.220Z,54.80
2019-03-29T09:12:14.585Z,54.43
2019-03-29T09:14:43.489Z,49.86
2019-03-29T09:17:12.028Z,45.13
2019-03-29T09:19:40.514Z,42.45
2019-03-29T09:22:09.036Z,44.12
2019-03-29T09:24:37.555Z,43.37
2019-03-29T09:27:06.045Z,43.35
2019-03-29T09:29:34.567Z,45.61
2019-03-29T09:32:03.062Z,44.69
2019-03-29T09:34:31.575Z,47.28
2019-03-29T09:37:00.388Z,47.39
2019-03-29T09:39:29.029Z,45.86
2019-03-29T09:41:57.618Z,46.02
2019-03-29T09:44:26.255Z,44.55
2019-03-29T09:46:54.761Z,44.58
2019-03-29T09:49:23.254Z,46.17
2019-03-29T09:51:51.771Z,47.43
2019-03-29T09:54:20.670Z,46.47
2019-03-29T09:56:49.374Z,48.18
2019-03-29T09:59:17.864Z,45.17
2019-03-29T10:01:46.620Z,45.44
2019-03-29T10:04:15.106Z,44.89
2019-03-29T10:06:43.608Z,45.09
2019-03-29T10:09:12.103Z,43.78
2019-03-29T10:11:40.599Z,44.19
2019-03-29T10:14:09.687Z,45.32
2019-03-29T10:16:38.172Z,45.17
2019-03-29T10:19:06.784Z,46.08
2019-03-29T10:21:35.332Z,46.54
2019-03-29T10:24:04.877Z,45.88
2019-03-29T10:26:33.370Z,46.94
2019-03-29T10:29:01.902Z,49.29
2019-03-29T10:31:32.378Z,49.86
2019-03-29T10:34:00.647Z,47.32
2019-03-29T10:36:29.455Z,46.74
2019-03-29T10:38:57.984Z,46.74
2019-03-29T10:41:26.503Z,52.38
2019-03-29T10:43:54.984Z,53.87
2019-03-29T10:46:23.501Z,55.50
2019-03-29T10:48:51.989Z,55.05
2019-03-29T10:51:20.598Z,52.40
2019-03-29T10:53:49.157Z,52.25
2019-03-29T10:56:17.651Z,53.01
2019-03-29T10:58:46.147Z,51.04
2019-03-29T11:01:14.682Z,48.92
2019-03-29T11:03:44.514Z,43.91
2019-03-29T11:06:13.031Z,44.38
2019-03-29T11:08:43.581Z,46.37
2019-03-29T11:11:11.823Z,45.09
2019-03-29T11:13:41.118Z,43.39
2019-03-29T11:16:09.971Z,43.49
2019-03-29T11:18:38.563Z,43.90
2019-03-29T11:21:07.194Z,44.00
2019-03-29T11:23:35.709Z,42.93
2019-03-29T11:26:04.363Z,42.59
2019-03-29T11:28:32.960Z,43.49
2019-03-29T11:31:01.487Z,42.23
2019-03-29T11:33:30.021Z,43.74
2019-03-29T11:35:58.508Z,44.12
2019-03-29T11:38:27.072Z,43.68
2019-03-29T11:40:55.553Z,48.38
2019-03-29T11:43:27.095Z,50.55
2019-03-29T11:45:54.344Z,48.50
2019-03-29T11:48:22.865Z,47.61
2019-03-29T11:50:51.455Z,49.54
2019-03-29T11:53:19.949Z,48.51
2019-03-29T11:55:48.460Z,48.58
2019-03-29T11:58:16.950Z,46.06
2019-03-29T12:00:45.502Z,48.84
2019-03-29T12:03:14.575Z,47.20
2019-03-29T12:05:43.222Z,50.15
2019-03-29T12:08:11.706Z,49.10
2019-03-29T12:10:40.207Z,45.70
2019-03-29T12:13:10.092Z,45.24
2019-03-29T12:15:39.023Z,44.51
2019-03-29T12:18:07.583Z,42.82
2019-03-29T12:20:36.944Z,41.47
2019-03-29T12:23:05.530Z,42.72
2019-03-29T12:25:34.021Z,44.71
2019-03-29T12:28:02.535Z,42.56
2019-03-29T12:30:32.438Z,41.25
2019-03-29T12:33:01.138Z,40.11
2019-03-29T12:35:29.630Z,40.07
2019-03-29T12:37:58.232Z,41.77
2019-03-29T12:40:26.797Z,40.36
2019-03-29T12:42:55.284Z,41.80
2019-03-29T12:45:23.791Z,42.83
2019-03-29T12:47:52.271Z,48.21
2019-03-29T12:50:20.770Z,48.26
2019-03-29T12:52:49.260Z,43.50
2019-03-29T12:55:18.132Z,42.25
2019-03-29T12:57:46.615Z,41.63
2019-03-29T13:00:15.632Z,44.61
2019-03-29T13:02:44.147Z,45.99
2019-03-29T13:05:12.967Z,44.41
2019-03-29T13:07:41.475Z,43.21
2019-03-29T13:10:11.092Z,40.97
2019-03-29T13:12:39.570Z,39.67
2019-03-29T13:15:08.814Z,39.34
2019-03-29T13:17:37.673Z,38.72
2019-03-29T13:20:09.427Z,39.51
2019-03-29T13:22:37.914Z,41.93
2019-03-29T13:25:07.813Z,43.98
2019-03-29T13:27:36.572Z,48.24
2019-03-29T13:30:08.474Z,45.29
2019-03-29T13:32:36.226Z,42.49
2019-03-29T13:35:06.700Z,43.59
2019-03-29T13:37:35.181Z,41.24
2019-03-29T13:40:05.008Z,40.19
2019-03-29T13:42:33.711Z,39.79
2019-03-29T13:45:02.229Z,40.92
2019-03-29T13:47:30.729Z,43.28
2019-03-29T13:49:59.278Z,44.98
2019-03-29T13:52:27.783Z,42.43
2019-03-29T13:54:56.263Z,43.52
2019-03-29T13:57:25.930Z,46.40
2019-03-29T13:59:54.411Z,47.26
2019-03-29T14:02:22.935Z,48.81
2019-03-29T14:04:51.415Z,51.25
2019-03-29T14:07:19.929Z,51.11
2019-03-29T14:09:48.413Z,49.35
2019-03-29T14:12:16.949Z,45.09
2019-03-29T14:14:45.503Z,45.60
2019-03-29T14:17:13.988Z,47.80
2019-03-29T14:19:42.503Z,44.78
2019-03-29T14:22:11.004Z,43.46
2019-03-29T14:24:39.507Z,44.46
2019-03-29T14:27:07.988Z,45.28
2019-03-29T14:29:36.508Z,46.56
2019-03-29T14:32:05.078Z,46.30
2019-03-29T14:34:33.558Z,45.89
2019-03-29T14:37:02.076Z,44.05
2019-03-29T14:39:30.563Z,44.75
2019-03-29T14:41:59.085Z,44.59
2019-03-29T14:44:27.572Z,43.86
2019-03-29T14:46:56.089Z,44.57
2019-03-29T14:49:24.610Z,45.51
2019-03-29T14:51:53.221Z,44.93
2019-03-29T14:54:21.818Z,45.27
2019-03-29T14:56:50.328Z,46.28
2019-03-29T14:59:18.893Z,44.98
2019-03-29T15:01:47.380Z,46.02
2019-03-29T15:04:15.881Z,44.04
2019-03-29T15:06:44.633Z,43.99
2019-03-29T15:09:13.117Z,45.42
2019-03-29T15:11:43.449Z,44.16
2019-03-29T15:14:11.895Z,45.36
2019-03-29T15:16:40.418Z,45.77
2019-03-29T15:19:08.908Z,47.33
2019-03-29T15:21:37.424Z,49.04
2019-03-29T15:24:05.923Z,47.73
2019-03-29T15:26:34.402Z,46.38
2019-03-29T15:29:03.016Z,51.12
2019-03-29T15:31:31.486Z,48.33
2019-03-29T15:33:59.982Z,47.50
2019-03-29T15:36:28.471Z,47.84
2019-03-29T15:38:56.978Z,47.96
2019-03-29T15:41:25.507Z,47.98
2019-03-29T15:43:54.025Z,46.92
2019-03-29T15:46:22.564Z,46.20
2019-03-29T15:48:51.148Z,47.43
2019-03-29T15:51:19.653Z,46.10
2019-03-29T15:53:48.147Z,46.38
2019-03-29T15:56:16.673Z,46.57
2019-03-29T15:58:45.868Z,46.12
2019-03-29T16:01:14.487Z,45.38
2019-03-29T16:03:42.977Z,45.74
2019-03-29T16:06:11.490Z,46.34
2019-03-29T16:08:40.064Z,46.21
2019-03-29T16:11:09.244Z,46.22
2019-03-29T16:13:38.183Z,46.16
2019-03-29T16:16:06.666Z,46.65
2019-03-29T16:18:35.151Z,46.35
2019-03-29T16:21:05.229Z,46.32
2019-03-29T16:23:33.749Z,45.36
2019-03-29T16:26:03.263Z,46.21
2019-03-29T16:28:31.839Z,46.32
2019-03-29T16:31:00.513Z,46.56
2019-03-29T16:33:29.005Z,46.64
2019-03-29T16:35:57.528Z,46.76
2019-03-29T16:38:26.019Z,46.51
2019-03-29T16:40:54.539Z,46.99
2019-03-29T16:43:24.656Z,47.03
2019-03-29T16:45:53.190Z,47.57
2019-03-29T16:48:21.681Z,47.19
2019-03-29T16:50:50.216Z,47.89
2019-03-29T16:53:18.708Z,47.55
2019-03-29T16:55:47.234Z,47.64
2019-03-29T16:58:15.753Z,47.98
2019-03-29T17:00:44.240Z,47.96
2019-03-29T17:03:12.832Z,48.27
2019-03-29T17:05:42.220Z,48.10
2019-03-29T17:08:10.919Z,48.98
2019-03-29T17:10:39.415Z,49.45
2019-03-29T17:13:07.897Z,49.95
2019-03-29T17:15:36.432Z,50.30
2019-03-29T17:18:05.702Z,50.01
2019-03-29T17:20:34.214Z,50.42
2019-03-29T17:23:02.736Z,50.72
2019-03-29T17:25:31.231Z,50.77
2019-03-29T17:27:59.742Z,51.32
2019-03-29T17:30:37.791Z,52.18
2019-03-29T17:33:06.383Z,52.40
2019-03-29T17:35:34.950Z,52.92
2019-03-29T17:38:03.445Z,52.74
2019-03-29T17:40:32.065Z,53.29
2019-03-29T17:43:00.704Z,53.80
2019-03-29T17:45:29.262Z,53.82
2019-03-29T17:47:57.757Z,54.35
2019-03-29T17:50:26.254Z,55.09
2019-03-29T17:52:54.778Z,55.58
2019-03-29T17:55:23.272Z,56.00
2019-03-29T17:57:51.809Z,56.21
2019-03-29T18:00:22.005Z,56.21
2019-03-29T18:02:50.530Z,56.29
2019-03-29T18:05:19.035Z,56.70
2019-03-29T18:07:48.427Z,56.53
2019-03-29T18:10:18.562Z,56.69
2019-03-29T18:12:47.054Z,57.27
2019-03-29T18:15:16.129Z,57.28
2019-03-29T18:17:44.844Z,57.46
2019-03-29T18:20:15.209Z,57.20
2019-03-29T18:22:43.766Z,57.28
2019-03-29T18:25:12.296Z,57.00
2019-03-29T18:27:40.797Z,56.98
2019-03-29T18:30:10.955Z,57.32
2019-03-29T18:32:39.516Z,57.59
2019-03-29T18:35:08.460Z,57.94
2019-03-29T18:37:37.489Z,58.07
2019-03-29T18:40:08.094Z,58.13
2019-03-29T18:42:36.588Z,58.44
2019-03-29T18:45:07.226Z,58.50
2019-03-29T18:47:35.715Z,58.76
2019-03-29T18:50:06.251Z,58.93
2019-03-29T18:52:34.746Z,58.82
2019-03-29T18:55:03.746Z,58.91
2019-03-29T18:57:32.250Z,59.07
2019-03-29T19:00:00.775Z,59.01
2019-03-29T19:02:29.266Z,59.13
2019-03-29T19:04:57.787Z,59.21
2019-03-29T19:07:30.038Z,59.28
2019-03-29T19:09:58.626Z,59.17
2019-03-29T19:12:27.486Z,59.75
2019-03-29T19:14:55.987Z,59.71
2019-03-29T19:17:26.124Z,59.88
2019-03-29T19:19:54.640Z,59.71
2019-03-29T19:22:23.171Z,59.52
2019-03-29T19:24:51.751Z,59.66
2019-03-29T19:27:20.296Z,59.30
2019-03-29T19:29:48.800Z,59.00
2019-03-29T19:32:17.318Z,59.34
2019-03-29T19:34:45.900Z,59.65
2019-03-29T19:37:16.046Z,59.66
2019-03-29T19:39:44.552Z,59.76
2019-03-29T19:42:16.529Z,59.75
2019-03-29T19:44:43.283Z,59.86
2019-03-29T19:47:13.807Z,60.15
2019-03-29T19:49:42.051Z,60.37
2019-03-29T19:52:10.606Z,60.23
2019-03-29T19:54:39.229Z,60.78
2019-03-29T19:57:07.892Z,61.73
2019-03-29T19:59:36.395Z,61.65
2019-03-29T20:02:04.982Z,61.45
2019-03-29T20:04:33.481Z,61.04
2019-03-29T20:07:01.989Z,60.77
2019-03-29T20:09:30.529Z,60.67
2019-03-29T20:11:59.041Z,61.13
2019-03-29T20:14:27.538Z,61.40
2019-03-29T20:16:56.059Z,61.64
2019-03-29T20:19:25.213Z,61.73
2019-03-29T20:21:53.899Z,61.73
2019-03-29T20:24:24.748Z,61.61
2019-03-29T20:26:53.266Z,61.51
2019-03-29T20:29:21.752Z,61.85
2019-03-29T20:31:50.837Z,61.40
2019-03-29T20:34:19.323Z,61.40
2019-03-29T20:36:47.914Z,61.18
2019-03-29T20:39:16.415Z,61.76
2019-03-29T20:41:44.972Z,61.81
2019-03-29T20:44:13.455Z,61.97
2019-03-29T20:46:44.015Z,61.83
2019-03-29T20:49:12.202Z,61.56
2019-03-29T20:51:40.757Z,61.65
2019-03-29T20:54:09.242Z,61.60
2019-03-29T20:56:37.741Z,61.60
2019-03-29T20:59:06.320Z,62.03
2019-03-29T21:01:34.837Z,62.39
2019-03-29T21:04:03.333Z,62.20
2019-03-29T21:06:31.847Z,61.94
2019-03-29T21:09:00.350Z,62.11
2019-03-29T21:11:28.836Z,62.23
2019-03-29T21:13:57.359Z,61.50
2019-03-29T21:16:25.874Z,61.48
2019-03-29T21:18:54.357Z,61.42
2019-03-29T21:21:24.521Z,62.11
2019-03-29T21:23:53.007Z,61.97
2019-03-29T21:26:21.609Z,61.87
2019-03-29T21:28:52.739Z,61.95
2019-03-29T21:31:20.306Z,62.22
2019-03-29T21:33:48.867Z,62.64
2019-03-29T21:36:18.143Z,62.20
2019-03-29T21:38:46.939Z,62.84
2019-03-29T21:41:15.414Z,62.83
2019-03-29T21:43:44.005Z,62.34
2019-03-29T21:46:12.490Z,62.62
2019-03-29T21:48:41.012Z,62.34
2019-03-29T21:51:09.503Z,63.18
2019-03-29T21:53:38.026Z,62.87
2019-03-29T21:56:06.585Z,62.96
2019-03-29T21:58:35.105Z,63.16
2019-03-29T22:01:03.594Z,62.85
2019-03-29T22:03:32.197Z,62.97
2019-03-29T22:06:00.679Z,63.03
2019-03-29T22:08:29.188Z,63.57
2019-03-29T22:10:57.676Z,65.05
2019-03-29T22:13:26.161Z,64.14
2019-03-29T22:15:54.657Z,63.67
2019-03-29T22:18:36.833Z,63.45
2019-03-29T22:20:53.423Z,63.41
2019-03-29T22:23:21.908Z,62.94
2019-03-29T22:25:50.418Z,62.50
2019-03-29T22:28:18.943Z,62.17
2019-03-29T22:30:47.430Z,62.34
2019-03-29T22:33:15.958Z,62.48
2019-03-29T22:35:45.984Z,62.51
2019-03-29T22:38:14.506Z,62.95
2019-03-29T22:40:43.012Z,63.30
2019-03-29T22:43:11.523Z,63.38
2019-03-29T22:45:40.033Z,63.51
2019-03-29T22:48:08.627Z,63.16
2019-03-29T22:50:37.194Z,63.42
2019-03-29T22:53:05.710Z,63.34
2019-03-29T22:55:34.194Z,62.86
2019-03-29T22:58:02.709Z,63.27
2019-03-29T23:00:38.673Z,63.25
2019-03-29T23:03:08.343Z,63.17
2019-03-29T23:05:37.176Z,63.02
2019-03-29T23:08:06.021Z,63.36
2019-03-29T23:10:34.522Z,63.06
2019-03-29T23:13:03.210Z,63.29
2019-03-29T23:15:31.936Z,63.41
2019-03-29T23:18:00.440Z,63.70
2019-03-29T23:20:28.943Z,63.71
2019-03-29T23:22:57.611Z,63.17
2019-03-29T23:25:26.104Z,63.67
2019-03-29T23:27:54.973Z,63.28
2019-03-29T23:30:23.698Z,64.07
2019-03-29T23:32:52.225Z,63.74
2019-03-29T23:35:20.710Z,63.23
2019-03-29T23:37:49.220Z,63.40
2019-03-29T23:40:17.778Z,66.12
2019-03-29T23:42:46.266Z,66.58
2019-03-29T23:45:14.856Z,65.47
2019-03-29T23:47:43.346Z,64.62
2019-03-29T23:50:12.729Z,64.32
2019-03-29T23:52:41.211Z,63.95
2019-03-29T23:55:09.767Z,64.24
2019-03-29T23:57:38.272Z,64.27
